Time;durP1;ratioP1;P1;durP2;ratioP2;P2;SDS_P1;SDS_P2;PMS_P1;PMS_P2;Temp;Humidity;BMP_temperature;BMP_pressure;BME280_temperature;BME280_humidity;BME280_pressure;Samples;Min_cycle;Max_cycle;Signal;HPM_P1;HPM_P2
2023/08/04 00:01:43;;;;;;;15.82;3.78;;;;;;;;;;5047470;28;20070;-74
2023/08/04 00:04:09;;;;;;;15.98;3.28;;;;;;;;;;5063549;28;20044;-74
2023/08/04 00:06:35;;;;;;;14.95;3.10;;;;;;;;;;5071685;28;20120;-73
2023/08/04 00:09:02;;;;;;;17.65;2.83;;;;;;;;;;5072357;28;20051;-75
2023/08/04 00:11:28;;;;;;;14.95;3.10;;;;;;;;;;5072188;28;20035;-73
2023/08/04 00:13:54;;;;;;;17.63;3.22;;;;;;;;;;5071480;28;20028;-74
2023/08/04 00:16:20;;;;;;;14.43;3.58;;;;;;;;;;5070858;28;20036;-74
2023/08/04 00:18:46;;;;;;;18.33;2.85;;;;;;;;;;5071510;28;20462;-74
2023/08/04 00:21:12;;;;;;;13.38;3.10;;;;;;;;;;5072055;28;20077;-73
2023/08/04 00:23:38;;;;;;;13.77;3.42;;;;;;;;;;5071443;28;20024;-75
2023/08/04 00:26:04;;;;;;;13.55;3.13;;;;;;;;;;5071978;28;20101;-74
2023/08/04 00:28:30;;;;;;;15.30;3.47;;;;;;;;;;5071609;28;20364;-74
2023/08/04 00:30:56;;;;;;;14.73;3.40;;;;;;;;;;5071537;28;20020;-74
2023/08/04 00:33:22;;;;;;;20.13;3.40;;;;;;;;;;5070290;28;20036;-73
2023/08/04 00:35:48;;;;;;;14.32;3.10;;;;;;;;;;5071829;28;20016;-73
2023/08/04 00:38:14;;;;;;;14.52;3.63;;;;;;;;;;5071363;28;20363;-74
2023/08/04 00:40:40;;;;;;;19.42;3.40;;;;;;;;;;5071508;28;20039;-74
2023/08/04 00:43:07;;;;;;;13.65;3.38;;;;;;;;;;5071357;28;20463;-72
2023/08/04 00:45:33;;;;;;;13.73;3.53;;;;;;;;;;5071165;28;20152;-74
2023/08/04 00:48:00;;;;;;;17.55;4.25;;;;;;;;;;5071356;28;20466;-74
2023/08/04 00:50:27;;;;;;;12.45;3.00;;;;;;;;;;5071485;28;20027;-74
2023/08/04 00:52:53;;;;;;;17.77;3.88;;;;;;;;;;5069775;28;20078;-74
2023/08/04 00:55:19;;;;;;;16.33;4.18;;;;;;;;;;5071097;28;20028;-74
2023/08/04 00:57:47;;;;;;;18.77;4.00;;;;;;;;;;5070710;28;20090;-72
2023/08/04 01:00:13;;;;;;;16.88;3.67;;;;;;;;;;5071768;28;20100;-71
2023/08/04 01:02:39;;;;;;;17.98;4.03;;;;;;;;;;5073214;28;20103;-72
2023/08/04 01:05:06;;;;;;;14.00;3.28;;;;;;;;;;5089467;28;20032;-73
2023/08/04 01:07:43;;;;;;;11.57;3.22;;;;;;;;;;5083532;28;20029;-73
2023/08/04 01:10:24;;;;;;;21.98;3.35;;;;;;;;;;5071135;28;20031;-74
2023/08/04 01:12:50;;;;;;;13.52;3.58;;;;;;;;;;5069836;28;20055;-73
2023/08/04 01:15:16;;;;;;;13.75;3.00;;;;;;;;;;5071024;28;20024;-73
2023/08/04 01:17:42;;;;;;;17.17;3.70;;;;;;;;;;5070793;28;20020;-73
2023/08/04 01:20:09;;;;;;;16.42;3.00;;;;;;;;;;5070838;28;20493;-74
2023/08/04 01:22:35;;;;;;;15.25;3.55;;;;;;;;;;5070361;28;20470;-73
2023/08/04 01:25:01;;;;;;;13.68;3.35;;;;;;;;;;5070371;28;20056;-72
2023/08/04 01:27:29;;;;;;;16.35;3.75;;;;;;;;;;5070604;28;20025;-72
2023/08/04 01:29:56;;;;;;;18.48;3.97;;;;;;;;;;5070665;28;20482;-72
2023/08/04 01:32:22;;;;;;;13.27;3.63;;;;;;;;;;5070288;28;20033;-72
2023/08/04 01:34:49;;;;;;;16.40;3.60;;;;;;;;;;5070686;28;20382;-73
2023/08/04 01:37:15;;;;;;;13.30;3.08;;;;;;;;;;5070401;28;20055;-73
2023/08/04 01:39:42;;;;;;;19.60;4.05;;;;;;;;;;5070721;28;20024;-73
2023/08/04 01:42:08;;;;;;;18.85;3.80;;;;;;;;;;5070475;28;20017;-73
2023/08/04 01:44:34;;;;;;;13.77;3.22;;;;;;;;;;5070875;28;20035;-74
2023/08/04 01:47:00;;;;;;;19.38;3.85;;;;;;;;;;5071652;28;20024;-73
2023/08/04 01:49:26;;;;;;;20.50;3.58;;;;;;;;;;5074682;28;20402;-72
2023/08/04 01:51:52;;;;;;;14.07;3.58;;;;;;;;;;5073970;28;20033;-74
2023/08/04 01:54:18;;;;;;;17.52;3.63;;;;;;;;;;5074740;28;20107;-74
2023/08/04 01:56:44;;;;;;;19.63;3.47;;;;;;;;;;5074491;28;20033;-72
2023/08/04 01:59:10;;;;;;;17.95;4.13;;;;;;;;;;5072861;28;20116;-74
2023/08/04 02:01:36;;;;;;;9.85;3.38;;;;;;;;;;5059064;28;20033;-73
2023/08/04 02:04:02;;;;;;;14.55;3.47;;;;;;;;;;5052754;28;20032;-72
2023/08/04 02:06:28;;;;;;;22.75;3.90;;;;;;;;;;5053939;28;20029;-71
2023/08/04 02:08:54;;;;;;;17.17;3.83;;;;;;;;;;5053837;28;20079;-71
2023/08/04 02:11:20;;;;;;;22.25;3.95;;;;;;;;;;5054603;28;20037;-72
2023/08/04 02:13:46;;;;;;;18.25;4.30;;;;;;;;;;5053028;28;20033;-72
2023/08/04 02:16:12;;;;;;;16.67;3.63;;;;;;;;;;5054148;28;20021;-72
2023/08/04 02:18:38;;;;;;;13.43;3.72;;;;;;;;;;5039011;28;20100;-72
2023/08/04 02:21:04;;;;;;;22.73;3.90;;;;;;;;;;5034458;28;20395;-72
2023/08/04 02:23:31;;;;;;;18.40;3.70;;;;;;;;;;5033412;28;20037;-73
2023/08/04 02:25:57;;;;;;;15.45;3.72;;;;;;;;;;5034775;28;20029;-72
2023/08/04 02:28:23;;;;;;;16.38;4.18;;;;;;;;;;5033632;28;20044;-71
2023/08/04 02:30:49;;;;;;;13.30;3.65;;;;;;;;;;5033591;28;20022;-71
2023/08/04 02:33:15;;;;;;;16.85;4.25;;;;;;;;;;5034415;28;20488;-73
2023/08/04 02:35:41;;;;;;;14.38;3.78;;;;;;;;;;5035746;28;20025;-73
2023/08/04 02:38:07;;;;;;;16.55;4.10;;;;;;;;;;5035640;28;20033;-73
2023/08/04 02:40:37;;;;;;;16.70;3.40;;;;;;;;;;5033261;28;20068;-72
2023/08/04 02:43:03;;;;;;;18.80;4.55;;;;;;;;;;5033984;28;20061;-72
2023/08/04 02:45:29;;;;;;;18.63;3.40;;;;;;;;;;5034569;28;20494;-72
2023/08/04 02:47:55;;;;;;;13.63;4.00;;;;;;;;;;5034384;28;20064;-72
2023/08/04 02:50:21;;;;;;;17.02;4.15;;;;;;;;;;5034399;28;20069;-72
2023/08/04 02:52:47;;;;;;;18.15;4.30;;;;;;;;;;5033910;28;20081;-73
2023/08/04 02:55:13;;;;;;;19.88;3.88;;;;;;;;;;5035337;28;20068;-72
2023/08/04 02:57:39;;;;;;;15.50;4.38;;;;;;;;;;5035781;28;20030;-72
2023/08/04 03:00:07;;;;;;;16.50;4.00;;;;;;;;;;5033095;28;20491;-72
2023/08/04 03:02:33;;;;;;;19.42;4.38;;;;;;;;;;5035092;28;20041;-72
2023/08/04 03:04:59;;;;;;;17.70;3.97;;;;;;;;;;5035409;28;20536;-72
2023/08/04 03:07:25;;;;;;;19.35;4.38;;;;;;;;;;5035424;28;20064;-72
2023/08/04 03:09:51;;;;;;;18.17;4.07;;;;;;;;;;5034191;28;20044;-71
2023/08/04 03:12:17;;;;;;;21.15;4.35;;;;;;;;;;5033433;28;20495;-71
2023/08/04 03:14:43;;;;;;;17.80;4.60;;;;;;;;;;5034561;28;20025;-72
2023/08/04 03:17:09;;;;;;;17.20;5.18;;;;;;;;;;5035232;28;20460;-73
2023/08/04 03:19:35;;;;;;;21.77;4.38;;;;;;;;;;5035348;28;20068;-72
2023/08/04 03:22:01;;;;;;;18.85;4.70;;;;;;;;;;5033913;28;20021;-72
2023/08/04 03:24:28;;;;;;;15.93;4.00;;;;;;;;;;5034379;28;20028;-72
2023/08/04 03:26:54;;;;;;;15.70;4.22;;;;;;;;;;5033837;28;20057;-72
2023/08/04 03:29:20;;;;;;;12.45;3.80;;;;;;;;;;5034682;28;20507;-72
2023/08/04 03:31:46;;;;;;;20.83;4.68;;;;;;;;;;5034892;28;20033;-71
2023/08/04 03:34:12;;;;;;;19.60;4.80;;;;;;;;;;5034078;28;20382;-72
2023/08/04 03:36:38;;;;;;;12.90;4.18;;;;;;;;;;5034783;28;20025;-72
2023/08/04 03:39:04;;;;;;;13.90;4.45;;;;;;;;;;5033882;28;20061;-71
2023/08/04 03:41:30;;;;;;;20.77;4.95;;;;;;;;;;5033812;28;20186;-70
2023/08/04 03:43:56;;;;;;;18.38;4.40;;;;;;;;;;5033604;28;20030;-70
2023/08/04 03:46:22;;;;;;;18.80;4.65;;;;;;;;;;5033681;28;20029;-71
2023/08/04 03:48:48;;;;;;;19.77;4.50;;;;;;;;;;5033812;28;20144;-72
2023/08/04 03:51:17;;;;;;;15.48;4.45;;;;;;;;;;5035630;28;20483;-72
2023/08/04 03:53:43;;;;;;;17.15;4.15;;;;;;;;;;5035397;28;20026;-73
2023/08/04 03:56:09;;;;;;;25.20;4.88;;;;;;;;;;5033755;28;20447;-70
2023/08/04 03:58:35;;;;;;;21.35;4.63;;;;;;;;;;5033274;28;20087;-75
2023/08/04 04:01:01;;;;;;;17.80;4.07;;;;;;;;;;5033254;28;20032;-72
2023/08/04 04:03:27;;;;;;;17.48;3.85;;;;;;;;;;5033498;28;20029;-73
2023/08/04 04:05:53;;;;;;;17.35;4.13;;;;;;;;;;5034223;28;20542;-71
2023/08/04 04:08:19;;;;;;;13.50;3.95;;;;;;;;;;5033101;28;20215;-72
2023/08/04 04:10:45;;;;;;;14.13;3.55;;;;;;;;;;5032597;28;20485;-71
2023/08/04 04:13:11;;;;;;;13.27;3.67;;;;;;;;;;5032781;28;20259;-73
2023/08/04 04:15:37;;;;;;;15.02;4.05;;;;;;;;;;5032790;28;20083;-72
2023/08/04 04:18:03;;;;;;;20.35;4.28;;;;;;;;;;5033353;28;20112;-73
2023/08/04 04:20:29;;;;;;;15.13;4.43;;;;;;;;;;5033050;28;20048;-72
2023/08/04 04:22:55;;;;;;;24.95;4.82;;;;;;;;;;5035117;28;20469;-73
2023/08/04 04:25:21;;;;;;;22.92;4.18;;;;;;;;;;5047548;28;20451;-72
2023/08/04 04:27:47;;;;;;;15.07;4.47;;;;;;;;;;5055099;28;20024;-73
2023/08/04 04:30:13;;;;;;;17.40;4.55;;;;;;;;;;5055058;28;20037;-72
2023/08/04 04:32:39;;;;;;;26.42;5.30;;;;;;;;;;5035408;28;20040;-70
2023/08/04 04:35:06;;;;;;;18.77;5.07;;;;;;;;;;5032933;28;20427;-71
2023/08/04 04:37:32;;;;;;;22.10;5.25;;;;;;;;;;5032900;28;20383;-72
2023/08/04 04:39:58;;;;;;;18.95;4.60;;;;;;;;;;5032929;28;20048;-71
2023/08/04 04:42:23;;;;;;;15.40;4.40;;;;;;;;;;5032645;28;20024;-72
2023/08/04 04:44:49;;;;;;;27.13;5.43;;;;;;;;;;5032801;28;20023;-72
2023/08/04 04:47:15;;;;;;;22.25;4.10;;;;;;;;;;5032202;28;20391;-73
2023/08/04 04:49:41;;;;;;;18.17;4.22;;;;;;;;;;5031335;28;20025;-74
2023/08/04 04:52:08;;;;;;;20.35;4.47;;;;;;;;;;5055774;28;20037;-74
2023/08/04 04:54:34;;;;;;;22.25;5.32;;;;;;;;;;5060945;28;20502;-74
2023/08/04 04:57:00;;;;;;;18.23;4.70;;;;;;;;;;5067869;28;20032;-74
2023/08/04 04:59:26;;;;;;;13.30;4.10;;;;;;;;;;5050260;28;20021;-75
2023/08/04 05:01:51;;;;;;;18.77;4.78;;;;;;;;;;5052137;28;20031;-75
2023/08/04 05:04:17;;;;;;;15.90;5.07;;;;;;;;;;5057846;28;20107;-73
2023/08/04 05:06:43;;;;;;;15.18;4.38;;;;;;;;;;5060622;28;20051;-73
2023/08/04 05:09:10;;;;;;;14.60;4.43;;;;;;;;;;5071883;28;20119;-74
2023/08/04 05:11:36;;;;;;;17.90;4.15;;;;;;;;;;5071626;28;20052;-73
2023/08/04 05:14:02;;;;;;;19.00;5.03;;;;;;;;;;5071422;28;20073;-73
2023/08/04 05:16:28;;;;;;;25.15;5.03;;;;;;;;;;5072186;28;20385;-72
2023/08/04 05:18:54;;;;;;;17.45;4.60;;;;;;;;;;5074672;28;20028;-71
2023/08/04 05:21:20;;;;;;;27.17;5.25;;;;;;;;;;5074442;28;20032;-73
2023/08/04 05:23:45;;;;;;;18.67;4.50;;;;;;;;;;5075437;28;20116;-72
2023/08/04 05:26:11;;;;;;;19.15;4.55;;;;;;;;;;5058956;28;20028;-73
2023/08/04 05:28:37;;;;;;;19.92;4.50;;;;;;;;;;5061613;28;20059;-74
2023/08/04 05:31:04;;;;;;;15.43;4.22;;;;;;;;;;5063685;28;20020;-74
2023/08/04 05:33:31;;;;;;;17.77;4.22;;;;;;;;;;5060115;28;20104;-72
2023/08/04 05:35:57;;;;;;;15.52;3.92;;;;;;;;;;5065271;28;20386;-73
2023/08/04 05:38:23;;;;;;;17.50;4.63;;;;;;;;;;5056183;28;20493;-74
2023/08/04 05:40:50;;;;;;;18.50;3.78;;;;;;;;;;5064366;28;20022;-73
2023/08/04 05:43:16;;;;;;;13.98;4.32;;;;;;;;;;5052515;28;20029;-73
2023/08/04 05:45:43;;;;;;;17.77;4.60;;;;;;;;;;5058448;28;20362;-73
2023/08/04 05:48:09;;;;;;;20.98;5.43;;;;;;;;;;5057472;28;20075;-72
2023/08/04 05:50:36;;;;;;;18.65;3.40;;;;;;;;;;5060170;28;20025;-73
2023/08/04 05:53:02;;;;;;;17.02;3.85;;;;;;;;;;5056704;28;20079;-73
2023/08/04 05:55:28;;;;;;;13.73;3.97;;;;;;;;;;5056214;28;20029;-73
2023/08/04 05:57:55;;;;;;;24.40;3.90;;;;;;;;;;5068412;28;20028;-73
2023/08/04 06:00:21;;;;;;;18.02;3.80;;;;;;;;;;5054302;28;20021;-72
2023/08/04 06:02:47;;;;;;;12.02;3.22;;;;;;;;;;5071017;28;20102;-71
2023/08/04 06:05:13;;;;;;;13.02;3.38;;;;;;;;;;5059795;28;20029;-73
2023/08/04 06:07:39;;;;;;;11.63;3.00;;;;;;;;;;5055683;28;20034;-73
2023/08/04 06:10:05;;;;;;;12.73;3.20;;;;;;;;;;5057439;28;20079;-72
2023/08/04 06:12:32;;;;;;;17.70;3.85;;;;;;;;;;5063306;28;20041;-72
2023/08/04 06:14:58;;;;;;;11.80;2.88;;;;;;;;;;5061049;28;20024;-71
2023/08/04 06:17:24;;;;;;;14.50;3.85;;;;;;;;;;5055958;28;20085;-74
2023/08/04 06:19:50;;;;;;;14.02;3.58;;;;;;;;;;5071470;28;20021;-74
2023/08/04 06:22:16;;;;;;;13.85;3.30;;;;;;;;;;5071832;28;20067;-77
2023/08/04 06:24:42;;;;;;;11.35;3.00;;;;;;;;;;5071793;28;20024;-74
2023/08/04 06:27:08;;;;;;;14.73;3.50;;;;;;;;;;5071934;28;20028;-72
2023/08/04 06:29:37;;;;;;;15.00;3.38;;;;;;;;;;5071782;28;20021;-72
2023/08/04 06:32:04;;;;;;;8.68;2.80;;;;;;;;;;5071662;28;20025;-74
2023/08/04 06:34:30;;;;;;;13.07;3.00;;;;;;;;;;5074647;28;20432;-71
2023/08/04 06:36:56;;;;;;;13.63;3.05;;;;;;;;;;5075555;28;20021;-72
2023/08/04 06:39:22;;;;;;;15.77;3.10;;;;;;;;;;5075986;28;20020;-72
2023/08/04 06:41:48;;;;;;;12.63;3.20;;;;;;;;;;5075210;28;20367;-72
2023/08/04 06:44:14;;;;;;;25.45;3.70;;;;;;;;;;5075471;28;20039;-73
2023/08/04 06:46:40;;;;;;;14.43;3.22;;;;;;;;;;5076279;28;20024;-72
2023/08/04 06:49:06;;;;;;;10.30;2.70;;;;;;;;;;5075746;28;20073;-72
2023/08/04 06:51:32;;;;;;;13.38;2.78;;;;;;;;;;5075508;28;20081;-71
2023/08/04 06:53:58;;;;;;;11.50;2.80;;;;;;;;;;5073900;28;20020;-71
2023/08/04 06:56:24;;;;;;;12.93;2.55;;;;;;;;;;5074788;28;20020;-72
2023/08/04 06:58:50;;;;;;;17.17;3.13;;;;;;;;;;5074470;28;20104;-72
2023/08/04 07:01:16;;;;;;;15.63;3.20;;;;;;;;;;5075047;28;20021;-72
2023/08/04 07:03:43;;;;;;;12.30;3.03;;;;;;;;;;5074310;28;20071;-73
2023/08/04 07:06:09;;;;;;;10.38;2.60;;;;;;;;;;5074796;28;20047;-73
2023/08/04 07:08:35;;;;;;;13.85;3.25;;;;;;;;;;5075582;28;20654;-72
2023/08/04 07:11:01;;;;;;;13.90;2.60;;;;;;;;;;5075781;28;20037;-72
2023/08/04 07:13:29;;;;;;;9.95;2.47;;;;;;;;;;5074577;28;20505;-71
2023/08/04 07:15:56;;;;;;;18.33;2.80;;;;;;;;;;5073997;28;20051;-73
2023/08/04 07:18:22;;;;;;;16.67;2.83;;;;;;;;;;5072988;28;20069;-73
2023/08/04 07:20:48;;;;;;;8.48;2.55;;;;;;;;;;5072223;28;20484;-76
2023/08/04 07:23:14;;;;;;;12.90;2.72;;;;;;;;;;5072610;28;20044;-75
2023/08/04 07:25:40;;;;;;;7.22;2.45;;;;;;;;;;5072906;28;20116;-72
2023/08/04 07:28:06;;;;;;;11.65;2.95;;;;;;;;;;5072896;28;20162;-73
2023/08/04 07:30:37;;;;;;;8.70;2.40;;;;;;;;;;5072649;28;20024;-73
2023/08/04 07:33:05;;;;;;;15.75;2.90;;;;;;;;;;5071661;28;20162;-72
2023/08/04 07:35:31;;;;;;;7.97;1.92;;;;;;;;;;5073451;28;20054;-74
2023/08/04 07:37:57;;;;;;;11.77;2.22;;;;;;;;;;5074588;28;20021;-72
2023/08/04 07:40:23;;;;;;;9.88;2.00;;;;;;;;;;5072814;28;20027;-73
2023/08/04 07:42:49;;;;;;;12.30;2.33;;;;;;;;;;5071970;28;20024;-73
2023/08/04 07:45:15;;;;;;;7.30;2.35;;;;;;;;;;5071766;28;20056;-73
2023/08/04 07:47:41;;;;;;;7.47;2.67;;;;;;;;;;5074016;28;20107;-71
2023/08/04 07:50:07;;;;;;;12.73;3.42;;;;;;;;;;5074219;28;20139;-72
2023/08/04 07:52:33;;;;;;;13.43;3.65;;;;;;;;;;5073581;28;20024;-72
2023/08/04 07:54:59;;;;;;;12.27;2.80;;;;;;;;;;5074606;28;20494;-72
2023/08/04 07:57:25;;;;;;;10.05;2.40;;;;;;;;;;5072284;28;20063;-73
2023/08/04 07:59:51;;;;;;;24.27;4.70;;;;;;;;;;5073105;28;20095;-72
2023/08/04 08:02:17;;;;;;;12.93;2.33;;;;;;;;;;5073901;28;20032;-73
2023/08/04 08:04:43;;;;;;;12.38;2.55;;;;;;;;;;5073309;28;20040;-72
2023/08/04 08:07:09;;;;;;;7.03;2.33;;;;;;;;;;5073904;28;20032;-72
2023/08/04 08:09:35;;;;;;;9.95;2.05;;;;;;;;;;5073682;28;20025;-72
2023/08/04 08:12:01;;;;;;;10.75;2.28;;;;;;;;;;5074028;28;20036;-71
2023/08/04 08:14:27;;;;;;;17.13;2.78;;;;;;;;;;5073306;28;20028;-74
2023/08/04 08:16:53;;;;;;;14.40;2.55;;;;;;;;;;5073204;28;20036;-74
2023/08/04 08:19:19;;;;;;;12.85;2.65;;;;;;;;;;5072482;28;20385;-73
2023/08/04 08:21:45;;;;;;;7.90;2.40;;;;;;;;;;5072227;28;20060;-72
2023/08/04 08:24:11;;;;;;;13.25;2.65;;;;;;;;;;5072151;28;20071;-72
2023/08/04 08:26:37;;;;;;;12.75;2.58;;;;;;;;;;5072476;28;20446;-72
2023/08/04 08:29:04;;;;;;;8.10;2.45;;;;;;;;;;5072481;28;20035;-72
2023/08/04 08:31:30;;;;;;;7.60;2.15;;;;;;;;;;5072560;28;20025;-71
2023/08/04 08:33:56;;;;;;;8.27;2.38;;;;;;;;;;5072043;28;20546;-72
2023/08/04 08:36:22;;;;;;;12.55;2.50;;;;;;;;;;5072179;28;20031;-72
2023/08/04 08:38:48;;;;;;;7.60;2.40;;;;;;;;;;5072519;28;20417;-73
2023/08/04 08:41:14;;;;;;;8.43;2.15;;;;;;;;;;5072457;28;20024;-72
2023/08/04 08:43:41;;;;;;;5.68;1.65;;;;;;;;;;5072259;28;20027;-72
2023/08/04 08:46:07;;;;;;;8.23;2.10;;;;;;;;;;5072319;28;20045;-76
2023/08/04 08:48:37;;;;;;;5.95;1.80;;;;;;;;;;5072118;28;20036;-75
2023/08/04 08:51:03;;;;;;;5.40;1.60;;;;;;;;;;5072055;28;20021;-73
2023/08/04 08:53:31;;;;;;;3.42;1.00;;;;;;;;;;5071784;28;20051;-72
2023/08/04 08:56:00;;;;;;;4.40;1.30;;;;;;;;;;5071931;28;20089;-72
2023/08/04 08:58:27;;;;;;;5.72;1.67;;;;;;;;;;5071405;28;20016;-72
2023/08/04 09:00:53;;;;;;;2.45;1.20;;;;;;;;;;5072036;28;20099;-72
2023/08/04 09:03:19;;;;;;;3.50;0.93;;;;;;;;;;5065069;28;20541;-73
2023/08/04 09:05:45;;;;;;;5.00;1.67;;;;;;;;;;5051266;28;20026;-72
2023/08/04 09:08:11;;;;;;;5.00;1.30;;;;;;;;;;5051749;28;20483;-74
2023/08/04 09:10:38;;;;;;;3.92;1.40;;;;;;;;;;5051649;28;20025;-73
2023/08/04 09:13:07;;;;;;;5.43;1.35;;;;;;;;;;5050540;28;20029;-72
2023/08/04 09:15:34;;;;;;;2.63;1.00;;;;;;;;;;5052326;28;20029;-72
2023/08/04 09:18:01;;;;;;;2.53;1.02;;;;;;;;;;5051888;28;20079;-72
2023/08/04 09:20:28;;;;;;;3.58;1.20;;;;;;;;;;5051698;28;20017;-73
2023/08/04 09:22:54;;;;;;;3.30;1.23;;;;;;;;;;5051806;28;20029;-73
2023/08/04 09:25:20;;;;;;;4.95;1.20;;;;;;;;;;5052128;28;20036;-73
2023/08/04 09:27:49;;;;;;;3.17;1.42;;;;;;;;;;5052311;28;20633;-73
2023/08/04 09:30:16;;;;;;;7.80;1.90;;;;;;;;;;5052823;28;20035;-73
2023/08/04 09:32:42;;;;;;;7.05;1.50;;;;;;;;;;5051213;28;20351;-72
2023/08/04 09:35:08;;;;;;;8.10;1.85;;;;;;;;;;5052605;28;20109;-73
2023/08/04 09:37:35;;;;;;;4.32;1.52;;;;;;;;;;5052730;28;20100;-72
2023/08/04 09:40:03;;;;;;;7.60;1.75;;;;;;;;;;5052582;28;20028;-72
2023/08/04 09:42:29;;;;;;;8.23;2.25;;;;;;;;;;5052248;28;20383;-72
2023/08/04 09:44:56;;;;;;;8.85;1.52;;;;;;;;;;5052520;28;20021;-72
2023/08/04 09:47:26;;;;;;;10.60;2.53;;;;;;;;;;5053544;28;20024;-73
2023/08/04 09:49:52;;;;;;;5.03;1.60;;;;;;;;;;5052983;28;20102;-72
2023/08/04 09:52:19;;;;;;;4.28;1.30;;;;;;;;;;5058504;28;20025;-73
2023/08/04 09:54:45;;;;;;;10.90;1.60;;;;;;;;;;5052538;28;20051;-73
2023/08/04 09:57:13;;;;;;;4.93;2.00;;;;;;;;;;5052617;28;20461;-73
2023/08/04 09:59:39;;;;;;;8.85;1.75;;;;;;;;;;5051669;28;20105;-73
2023/08/04 10:02:05;;;;;;;9.10;2.00;;;;;;;;;;5050990;28;20067;-74
2023/08/04 10:04:33;;;;;;;4.88;1.98;;;;;;;;;;5050999;28;20483;-73
2023/08/04 10:06:59;;;;;;;7.07;1.60;;;;;;;;;;5051219;28;20075;-72
2023/08/04 10:09:26;;;;;;;5.32;1.77;;;;;;;;;;5054547;28;20024;-72
2023/08/04 10:11:53;;;;;;;5.38;1.58;;;;;;;;;;5055503;28;20200;-74
2023/08/04 10:14:19;;;;;;;5.70;1.80;;;;;;;;;;5056255;28;20096;-75
2023/08/04 10:16:46;;;;;;;2.95;1.40;;;;;;;;;;5055742;28;20083;-72
2023/08/04 10:19:13;;;;;;;6.85;1.30;;;;;;;;;;5055829;28;20527;-72
2023/08/04 10:21:40;;;;;;;2.80;1.20;;;;;;;;;;5055402;28;20052;-72
2023/08/04 10:24:06;;;;;;;6.07;1.80;;;;;;;;;;5055375;28;20126;-71
2023/08/04 10:26:33;;;;;;;7.28;1.80;;;;;;;;;;5055500;28;20032;-72
2023/08/04 10:29:05;;;;;;;5.30;1.63;;;;;;;;;;5055226;28;20032;-72
2023/08/04 10:31:51;;;;;;;8.40;1.80;;;;;;;;;;5054798;28;20091;-71
2023/08/04 10:34:26;;;;;;;6.97;1.40;;;;;;;;;;5055071;28;20032;-73
2023/08/04 10:36:55;;;;;;;4.43;1.42;;;;;;;;;;5055209;28;20040;-73
2023/08/04 10:39:28;;;;;;;5.40;1.25;;;;;;;;;;5055227;28;20363;-72
2023/08/04 10:41:54;;;;;;;9.02;1.60;;;;;;;;;;5055042;28;20029;-72
2023/08/04 10:44:20;;;;;;;6.80;1.38;;;;;;;;;;5054914;28;20562;-73
2023/08/04 10:46:49;;;;;;;10.20;2.30;;;;;;;;;;5055326;28;20064;-72
2023/08/04 10:49:15;;;;;;;6.68;1.77;;;;;;;;;;5054410;28;20024;-73
2023/08/04 10:51:41;;;;;;;4.65;1.38;;;;;;;;;;5054292;28;20548;-73
2023/08/04 10:54:07;;;;;;;5.55;1.65;;;;;;;;;;5054206;28;20336;-72
2023/08/04 10:56:37;;;;;;;6.97;1.77;;;;;;;;;;5054474;28;20027;-73
2023/08/04 10:59:07;;;;;;;5.68;1.58;;;;;;;;;;5054261;28;20021;-73
2023/08/04 11:01:33;;;;;;;6.47;1.40;;;;;;;;;;5054196;28;20100;-73
2023/08/04 11:03:59;;;;;;;4.68;1.60;;;;;;;;;;5053952;28;20445;-73
2023/08/04 11:06:25;;;;;;;5.28;1.50;;;;;;;;;;5054244;28;20040;-73
2023/08/04 11:08:52;;;;;;;11.18;2.60;;;;;;;;;;5054207;28;20032;-72
2023/08/04 11:11:18;;;;;;;7.35;1.80;;;;;;;;;;5054531;28;20548;-73
2023/08/04 11:13:44;;;;;;;7.85;1.88;;;;;;;;;;5053972;28;20037;-73
2023/08/04 11:16:16;;;;;;;6.93;2.08;;;;;;;;;;5054490;28;20104;-71
2023/08/04 11:18:42;;;;;;;7.35;1.90;;;;;;;;;;5055122;28;20017;-71
2023/08/04 11:21:08;;;;;;;5.95;1.70;;;;;;;;;;5053289;28;20367;-72
2023/08/04 11:23:34;;;;;;;8.73;1.80;;;;;;;;;;5053867;28;20025;-73
2023/08/04 11:26:00;;;;;;;5.88;2.25;;;;;;;;;;5054013;28;20049;-72
2023/08/04 11:28:27;;;;;;;10.63;2.15;;;;;;;;;;5053867;28;20072;-72
2023/08/04 11:30:54;;;;;;;7.55;1.67;;;;;;;;;;5053698;28;20025;-72
2023/08/04 11:33:20;;;;;;;9.68;2.17;;;;;;;;;;5053383;28;20063;-73
2023/08/04 11:35:46;;;;;;;15.07;2.85;;;;;;;;;;5053519;28;20458;-74
2023/08/04 11:38:12;;;;;;;9.02;2.05;;;;;;;;;;5053605;28;20396;-73
2023/08/04 11:40:53;;;;;;;12.15;2.30;;;;;;;;;;5053578;28;20028;-72
2023/08/04 11:43:19;;;;;;;7.72;2.60;;;;;;;;;;5053282;28;20028;-71
2023/08/04 11:45:48;;;;;;;5.50;1.92;;;;;;;;;;5053626;28;20028;-72
2023/08/04 11:48:14;;;;;;;11.43;2.20;;;;;;;;;;5053510;28;20487;-72
2023/08/04 11:50:40;;;;;;;7.82;2.15;;;;;;;;;;5053432;28;20033;-72
2023/08/04 11:53:06;;;;;;;8.70;1.95;;;;;;;;;;5052999;28;20407;-74
2023/08/04 11:55:35;;;;;;;12.18;2.40;;;;;;;;;;5053240;28;20029;-71
2023/08/04 11:58:01;;;;;;;7.85;2.13;;;;;;;;;;5053139;28;20025;-73
2023/08/04 12:00:34;;;;;;;9.18;1.98;;;;;;;;;;5051911;28;20525;-73
2023/08/04 12:03:01;;;;;;;6.78;2.00;;;;;;;;;;5052420;28;20578;-73
2023/08/04 12:05:30;;;;;;;12.68;2.45;;;;;;;;;;5053102;28;20040;-73
2023/08/04 12:07:57;;;;;;;7.72;1.83;;;;;;;;;;5053245;28;20020;-73
2023/08/04 12:10:24;;;;;;;8.43;2.00;;;;;;;;;;5053098;28;20029;-73
2023/08/04 12:12:50;;;;;;;7.78;2.08;;;;;;;;;;5052255;28;20032;-72
2023/08/04 12:15:16;;;;;;;3.35;1.30;;;;;;;;;;5052854;28;20118;-73
2023/08/04 12:17:43;;;;;;;3.35;1.33;;;;;;;;;;5052868;28;20070;-73
2023/08/04 12:20:12;;;;;;;4.80;1.40;;;;;;;;;;5052415;28;20483;-72
2023/08/04 12:22:39;;;;;;;6.75;1.80;;;;;;;;;;5051910;28;20059;-71
2023/08/04 12:25:05;;;;;;;5.60;1.35;;;;;;;;;;5052680;28;20451;-72
2023/08/04 12:27:31;;;;;;;6.03;1.30;;;;;;;;;;5052507;28;20048;-72
2023/08/04 12:29:57;;;;;;;6.25;1.52;;;;;;;;;;5052599;28;20599;-72
2023/08/04 12:32:23;;;;;;;6.40;1.40;;;;;;;;;;5051835;28;20032;-73
2023/08/04 12:34:49;;;;;;;5.20;1.42;;;;;;;;;;5052372;28;20029;-72
2023/08/04 12:37:15;;;;;;;8.05;2.22;;;;;;;;;;5052300;28;20479;-72
2023/08/04 12:39:41;;;;;;;9.00;3.10;;;;;;;;;;5052242;28;20028;-73
2023/08/04 12:42:07;;;;;;;8.13;1.70;;;;;;;;;;5051360;28;20047;-74
2023/08/04 12:44:33;;;;;;;5.75;1.42;;;;;;;;;;5051979;28;20104;-72
2023/08/04 12:46:59;;;;;;;25.67;12.40;;;;;;;;;;5052056;28;20505;-72
2023/08/04 12:49:25;;;;;;;8.02;1.50;;;;;;;;;;5051797;28;20017;-72
2023/08/04 12:51:51;;;;;;;5.10;1.58;;;;;;;;;;5052012;28;20483;-72
2023/08/04 12:54:17;;;;;;;6.28;1.60;;;;;;;;;;5044678;28;20037;-71
2023/08/04 12:56:43;;;;;;;9.80;1.70;;;;;;;;;;5061920;28;20032;-70
2023/08/04 12:59:10;;;;;;;7.30;1.35;;;;;;;;;;5062934;28;20028;-71
2023/08/04 13:01:37;;;;;;;8.80;1.70;;;;;;;;;;5066271;28;20017;-72
2023/08/04 13:04:03;;;;;;;4.50;1.30;;;;;;;;;;5054799;28;20082;-73
2023/08/04 13:06:28;;;;;;;6.05;1.60;;;;;;;;;;5056685;28;20028;-72
2023/08/04 13:08:54;;;;;;;8.15;2.17;;;;;;;;;;5049180;28;20106;-73
2023/08/04 13:11:20;;;;;;;8.90;2.13;;;;;;;;;;5062730;28;20040;-73
2023/08/04 13:13:46;;;;;;;7.43;2.50;;;;;;;;;;5057603;28;20040;-73
2023/08/04 13:16:12;;;;;;;9.05;1.85;;;;;;;;;;5059151;28;20107;-72
2023/08/04 13:18:38;;;;;;;6.32;1.75;;;;;;;;;;5060096;28;20017;-72
2023/08/04 13:21:05;;;;;;;5.10;1.40;;;;;;;;;;5054828;28;20441;-72
2023/08/04 13:23:32;;;;;;;10.27;1.70;;;;;;;;;;5052493;28;20037;-72
2023/08/04 13:26:02;;;;;;;12.40;1.65;;;;;;;;;;5059270;28;20170;-71
2023/08/04 13:28:28;;;;;;;7.00;1.65;;;;;;;;;;5063125;28;20029;-72
2023/08/04 13:30:54;;;;;;;6.18;1.40;;;;;;;;;;5055892;28;20031;-73
2023/08/04 13:33:20;;;;;;;5.85;1.48;;;;;;;;;;5052573;28;20025;-72
2023/08/04 13:35:46;;;;;;;7.07;1.65;;;;;;;;;;5057809;28;20174;-72
2023/08/04 13:38:12;;;;;;;5.85;1.63;;;;;;;;;;5054117;28;20036;-72
2023/08/04 13:40:37;;;;;;;6.50;1.95;;;;;;;;;;5060359;28;20104;-73
2023/08/04 13:43:03;;;;;;;9.48;2.10;;;;;;;;;;5063066;28;20509;-72
2023/08/04 13:45:29;;;;;;;7.35;1.90;;;;;;;;;;5066456;28;20111;-71
2023/08/04 13:47:55;;;;;;;6.03;1.85;;;;;;;;;;5059124;28;20028;-73
2023/08/04 13:50:21;;;;;;;12.23;2.78;;;;;;;;;;5055904;28;20044;-71
2023/08/04 13:52:47;;;;;;;7.22;2.00;;;;;;;;;;5066885;28;20435;-72
2023/08/04 13:55:14;;;;;;;7.82;1.67;;;;;;;;;;5068141;28;20024;-72
2023/08/04 13:57:40;;;;;;;8.30;1.92;;;;;;;;;;5066286;28;20020;-71
2023/08/04 14:00:06;;;;;;;12.80;2.75;;;;;;;;;;5064666;28;20041;-73
2023/08/04 14:02:32;;;;;;;15.52;5.00;;;;;;;;;;5074952;28;20035;-73
2023/08/04 14:04:59;;;;;;;8.55;2.17;;;;;;;;;;5077979;28;20040;-72
2023/08/04 14:07:25;;;;;;;8.27;2.13;;;;;;;;;;5075786;28;20025;-71
2023/08/04 14:09:51;;;;;;;8.25;1.80;;;;;;;;;;5054702;28;20041;-73
2023/08/04 14:12:17;;;;;;;6.35;1.65;;;;;;;;;;5056641;28;20028;-72
2023/08/04 14:14:43;;;;;;;8.88;1.83;;;;;;;;;;5057094;28;20056;-72
2023/08/04 14:17:09;;;;;;;10.13;2.22;;;;;;;;;;5056864;28;20434;-72
2023/08/04 14:19:35;;;;;;;11.32;2.17;;;;;;;;;;5057678;28;20029;-73
2023/08/04 14:22:01;;;;;;;9.18;1.50;;;;;;;;;;5055925;28;20029;-73
2023/08/04 14:24:27;;;;;;;7.85;2.17;;;;;;;;;;5056853;28;20471;-73
2023/08/04 14:26:53;;;;;;;12.73;4.28;;;;;;;;;;5056648;28;20039;-72
2023/08/04 14:29:19;;;;;;;7.03;1.95;;;;;;;;;;5056473;28;20387;-72
2023/08/04 14:31:45;;;;;;;13.65;2.47;;;;;;;;;;5056293;28;20039;-73